createdAt,value
2018-03-26T00:02:26.891Z,60.00
2018-03-26T00:04:58.759Z,61.50
2018-03-26T00:07:33.816Z,62.75
2018-03-26T00:10:08.509Z,62.75
2018-03-26T00:12:40.146Z,63.00
2018-03-26T00:15:16.677Z,58.00
2018-03-26T00:17:48.901Z,65.50
2018-03-26T00:20:21.338Z,63.50
2018-03-26T00:22:53.063Z,60.50
2018-03-26T00:25:24.054Z,63.50
2018-03-26T00:27:57.243Z,63.75
2018-03-26T00:30:30.968Z,61.00
2018-03-26T00:33:03.398Z,63.75
2018-03-26T00:35:35.436Z,62.00
2018-03-26T00:38:06.840Z,61.50
2018-03-26T00:40:38.856Z,59.75
2018-03-26T00:43:18.160Z,62.50
2018-03-26T00:46:13.522Z,64.25
2018-03-26T00:53:34.742Z,57.50
2018-03-26T00:56:06.470Z,63.25
2018-03-26T00:58:38.249Z,60.50
2018-03-26T01:01:10.892Z,64.25
2018-03-26T01:03:43.158Z,62.00
2018-03-26T01:06:17.090Z,65.75
2018-03-26T01:08:48.614Z,59.00
2018-03-26T01:11:21.170Z,66.00
2018-03-26T01:13:52.839Z,67.50
2018-03-26T01:16:25.320Z,63.50
2018-03-26T01:18:57.198Z,64.75
2018-03-26T01:21:28.947Z,66.00
2018-03-26T01:24:01.984Z,66.50
2018-03-26T01:26:33.666Z,64.50
2018-03-26T01:29:05.968Z,66.00
2018-03-26T01:31:38.115Z,66.00
2018-03-26T01:34:10.957Z,66.00
2018-03-26T01:36:43.253Z,68.50
2018-03-26T01:39:14.912Z,66.50
2018-03-26T01:41:46.754Z,66.00
2018-03-26T01:44:18.882Z,66.00
2018-03-26T01:46:50.798Z,66.75
2018-03-26T01:49:23.577Z,66.25
2018-03-26T01:51:56.150Z,66.00
2018-03-26T01:54:34.376Z,69.00
2018-03-26T01:57:08.225Z,66.25
2018-03-26T01:59:40.367Z,65.00
2018-03-26T02:02:13.991Z,66.25
2018-03-26T02:04:45.578Z,67.00
2018-03-26T02:07:17.875Z,65.00
2018-03-26T02:09:49.801Z,67.25
2018-03-26T02:12:21.157Z,67.50
2018-03-26T02:14:52.709Z,64.75
2018-03-26T02:17:24.655Z,65.25
2018-03-26T02:19:56.747Z,65.75
2018-03-26T02:22:28.856Z,65.50
2018-03-26T02:24:59.686Z,67.00
2018-03-26T02:27:31.618Z,68.75
2018-03-26T02:30:04.776Z,64.25
2018-03-26T02:32:36.273Z,63.25
2018-03-26T02:35:07.946Z,62.25
2018-03-26T02:37:39.198Z,62.00
2018-03-26T02:40:10.992Z,59.50
2018-03-26T02:42:43.364Z,61.50
2018-03-26T02:45:22.621Z,61.25
2018-03-26T02:47:53.767Z,62.25
2018-03-26T02:50:24.892Z,63.00
2018-03-26T02:52:56.084Z,62.50
2018-03-26T02:55:27.631Z,60.00
2018-03-26T02:57:58.710Z,55.75
2018-03-26T03:00:32.314Z,57.25
2018-03-26T03:03:03.323Z,55.25
2018-03-26T03:05:34.597Z,54.00
2018-03-26T03:08:05.608Z,56.50
2018-03-26T03:10:37.097Z,55.50
2018-03-26T03:13:08.218Z,54.75
2018-03-26T03:15:39.733Z,54.75
2018-03-26T03:18:12.366Z,56.75
2018-03-26T03:20:43.750Z,54.50
2018-03-26T03:23:15.660Z,54.00
2018-03-26T03:25:50.031Z,51.50
2018-03-26T03:28:21.407Z,50.75
2018-03-26T03:30:52.795Z,50.25
2018-03-26T03:33:23.941Z,50.50
2018-03-26T03:35:55.621Z,47.75
2018-03-26T03:38:27.132Z,50.25
2018-03-26T03:40:59.706Z,52.00
2018-03-26T03:43:30.797Z,52.25
2018-03-26T03:46:04.007Z,56.75
2018-03-26T03:48:36.538Z,52.25
2018-03-26T03:51:08.030Z,50.50
2018-03-26T03:53:39.200Z,52.50
2018-03-26T03:56:11.841Z,52.75
2018-03-26T03:58:49.961Z,51.50
2018-03-26T04:01:21.373Z,50.25
2018-03-26T04:03:52.132Z,53.75
2018-03-26T04:06:23.913Z,53.00
2018-03-26T04:08:55.426Z,50.75
2018-03-26T04:11:26.797Z,53.00
2018-03-26T04:13:58.171Z,49.75
2018-03-26T04:16:30.142Z,48.25
2018-03-26T04:19:02.162Z,51.00
2018-03-26T04:21:34.843Z,48.00
2018-03-26T04:24:06.112Z,51.75
2018-03-26T04:26:37.322Z,50.00
2018-03-26T04:32:05.970Z,51.75
2018-03-26T04:34:53.440Z,52.00
2018-03-26T04:37:24.490Z,56.00
2018-03-26T04:39:55.990Z,53.25
2018-03-26T04:42:28.985Z,52.25
2018-03-26T04:45:00.214Z,54.50
2018-03-26T04:47:33.595Z,56.00
2018-03-26T04:50:05.661Z,57.50
2018-03-26T04:52:37.598Z,58.50
2018-03-26T04:55:09.302Z,57.75
2018-03-26T04:57:40.819Z,56.50
2018-03-26T05:00:14.641Z,55.00
2018-03-26T05:02:46.425Z,54.00
2018-03-26T05:05:19.378Z,52.50
2018-03-26T05:07:50.611Z,59.00
2018-03-26T05:13:05.966Z,55.00
2018-03-26T05:15:48.583Z,56.00
2018-03-26T05:18:19.828Z,52.25
2018-03-26T05:20:52.041Z,62.00
2018-03-26T05:23:23.732Z,55.00
2018-03-26T05:25:55.516Z,59.50
2018-03-26T05:28:28.418Z,59.25
2018-03-26T05:31:01.670Z,56.75
2018-03-26T05:33:33.535Z,52.50
2018-03-26T05:36:05.968Z,55.25
2018-03-26T05:38:39.448Z,52.50
2018-03-26T05:41:12.102Z,56.25
2018-03-26T05:43:44.363Z,60.00
2018-03-26T05:46:17.835Z,62.25
2018-03-26T05:48:52.304Z,58.00
2018-03-26T05:51:29.287Z,59.75
2018-03-26T05:54:01.883Z,60.00
2018-03-26T05:56:35.512Z,62.00
2018-03-26T05:59:06.672Z,61.00
2018-03-26T06:01:38.556Z,61.75
2018-03-26T06:04:12.046Z,61.50
2018-03-26T06:06:50.328Z,64.00
2018-03-26T06:09:23.506Z,60.00
2018-03-26T06:11:54.940Z,63.75
2018-03-26T06:14:26.524Z,65.25
2018-03-26T06:17:13.294Z,65.00
2018-03-26T06:19:46.058Z,63.50
2018-03-26T06:22:18.122Z,64.00
2018-03-26T06:24:49.774Z,67.75
2018-03-26T06:27:22.130Z,71.00
2018-03-26T06:29:55.055Z,70.50
2018-03-26T06:38:32.983Z,72.50
2018-03-26T06:41:04.493Z,74.50
2018-03-26T06:43:43.613Z,74.75
2018-03-26T06:46:20.448Z,72.50
2018-03-26T06:48:59.539Z,73.00
2018-03-26T06:51:31.423Z,78.00
2018-03-26T06:54:09.850Z,73.00
2018-03-26T07:01:59.496Z,72.75
2018-03-26T07:04:32.038Z,78.25
2018-03-26T07:07:04.114Z,75.50
2018-03-26T07:09:45.012Z,74.25
2018-03-26T07:12:20.248Z,75.75
2018-03-26T07:14:51.547Z,68.00
2018-03-26T07:17:25.264Z,69.00
2018-03-26T07:19:57.792Z,71.00
2018-03-26T07:22:30.283Z,69.25
2018-03-26T07:25:02.515Z,71.25
2018-03-26T07:27:41.014Z,68.75
2018-03-26T07:38:16.019Z,72.00
2018-03-26T07:40:47.444Z,70.00
2018-03-26T07:43:21.309Z,74.00
2018-03-26T07:45:57.545Z,72.50
2018-03-26T07:48:37.716Z,69.75
2018-03-26T07:51:09.408Z,62.75
2018-03-26T07:53:41.926Z,67.00
2018-03-26T07:56:21.695Z,65.25
2018-03-26T07:58:55.114Z,65.00
2018-03-26T08:04:29.963Z,66.25
2018-03-26T08:07:01.727Z,62.50
2018-03-26T08:24:27.420Z,55.50
2018-03-26T08:27:00.798Z,56.00
2018-03-26T08:29:34.966Z,53.50
2018-03-26T08:32:06.752Z,51.00
2018-03-26T08:37:19.331Z,59.75
2018-03-26T08:39:50.432Z,59.50
2018-03-26T08:42:22.342Z,56.75
2018-03-26T08:44:54.627Z,54.75
2018-03-26T08:47:26.372Z,54.00
2018-03-26T08:49:58.264Z,56.75
2018-03-26T08:52:30.285Z,54.25
2018-03-26T08:55:02.749Z,48.75
2018-03-26T08:57:33.969Z,44.75
2018-03-26T09:00:07.974Z,47.50
2018-03-26T09:02:40.231Z,46.50
2018-03-26T09:05:13.890Z,45.25
2018-03-26T09:07:45.642Z,44.75
2018-03-26T09:10:16.975Z,43.50
2018-03-26T09:12:48.221Z,45.25
2018-03-26T09:15:22.639Z,42.25
2018-03-26T09:17:55.799Z,39.00
2018-03-26T09:20:26.756Z,32.25
2018-03-26T09:22:57.831Z,34.50
2018-03-26T09:25:29.373Z,34.50
2018-03-26T09:28:00.888Z,37.00
2018-03-26T09:30:33.413Z,35.50
2018-03-26T09:33:04.530Z,29.00
2018-03-26T09:35:36.484Z,27.75
2018-03-26T09:38:07.900Z,20.75
2018-03-26T09:40:39.722Z,25.00
2018-03-26T09:43:11.104Z,27.75
2018-03-26T09:45:42.537Z,28.25
2018-03-26T09:48:13.465Z,17.75
2018-03-26T09:50:45.738Z,15.75
2018-03-26T09:53:17.178Z,11.00
2018-03-26T09:55:50.132Z,15.00
2018-03-26T09:58:27.432Z,15.00
2018-03-26T10:01:05.142Z,17.00
2018-03-26T10:03:41.192Z,17.75
2018-03-26T10:06:13.997Z,17.50
2018-03-26T10:08:48.218Z,18.50
2018-03-26T10:11:20.210Z,18.75
2018-03-26T10:13:53.740Z,11.25
2018-03-26T10:16:24.959Z,7.00
2018-03-26T10:19:07.441Z,11.25
2018-03-26T10:21:40.016Z,14.00
2018-03-26T10:24:11.840Z,9.25
2018-03-26T10:26:59.843Z,10.75
2018-03-26T10:29:38.727Z,12.75
2018-03-26T10:32:14.900Z,15.00
2018-03-26T10:37:40.157Z,18.25
2018-03-26T10:40:13.345Z,14.00
2018-03-26T10:42:56.599Z,18.25
2018-03-26T10:45:41.435Z,18.75
2018-03-26T10:48:13.184Z,13.00
2018-03-26T10:50:58.636Z,15.25
2018-03-26T10:53:32.459Z,13.75
2018-03-26T10:56:06.601Z,14.75
2018-03-26T10:58:41.970Z,15.00
2018-03-26T11:01:15.257Z,14.00
2018-03-26T11:03:48.176Z,11.25
2018-03-26T11:06:19.330Z,16.50
2018-03-26T11:08:52.077Z,19.25
2018-03-26T11:11:24.059Z,14.25
2018-03-26T11:13:57.413Z,15.00
2018-03-26T11:16:29.842Z,15.25
2018-03-26T11:19:05.751Z,15.75
2018-03-26T11:21:53.535Z,13.00
2018-03-26T11:24:28.147Z,10.00
2018-03-26T11:27:00.654Z,16.00
2018-03-26T11:29:32.320Z,12.00
2018-03-26T11:32:05.937Z,14.75
2018-03-26T11:34:38.301Z,11.75
2018-03-26T11:37:09.612Z,12.50
2018-03-26T11:39:54.440Z,12.25
2018-03-26T11:42:27.728Z,11.00
2018-03-26T11:45:05.791Z,11.25
2018-03-26T11:47:37.903Z,14.25
2018-03-26T11:50:15.459Z,11.75
2018-03-26T11:52:47.103Z,12.25
2018-03-26T11:55:18.223Z,12.00
2018-03-26T11:57:49.223Z,12.75
2018-03-26T12:03:17.181Z,12.00
2018-03-26T12:05:52.941Z,11.00
2018-03-26T12:08:24.403Z,14.25
2018-03-26T12:10:56.277Z,12.25
2018-03-26T12:13:27.744Z,11.50
2018-03-26T12:16:00.572Z,11.50
2018-03-26T12:18:49.559Z,9.75
2018-03-26T12:21:21.047Z,12.00
2018-03-26T12:24:03.141Z,8.75
2018-03-26T12:26:36.078Z,11.00
2018-03-26T12:29:34.225Z,7.50
2018-03-26T12:32:07.315Z,8.00
2018-03-26T12:36:49.496Z,7.00
2018-03-26T12:39:22.615Z,6.50
2018-03-26T12:41:55.100Z,7.25
2018-03-26T12:44:37.980Z,6.75
2018-03-26T12:47:18.970Z,11.50
2018-03-26T12:49:51.054Z,11.00
2018-03-26T12:52:32.610Z,9.00
2018-03-26T12:55:05.268Z,10.50
2018-03-26T12:58:46.174Z,10.00
2018-03-26T13:01:28.269Z,8.00
2018-03-26T13:03:59.385Z,8.00
2018-03-26T13:06:31.754Z,7.00
2018-03-26T13:09:03.527Z,9.50
2018-03-26T13:11:35.677Z,11.00
2018-03-26T13:14:09.785Z,10.50
2018-03-26T13:16:43.381Z,11.25
2018-03-26T13:19:14.490Z,11.00
2018-03-26T13:21:46.031Z,9.00
2018-03-26T13:24:17.102Z,9.00
2018-03-26T13:26:48.417Z,10.00
2018-03-26T13:29:20.164Z,11.25
2018-03-26T13:31:51.892Z,9.50
2018-03-26T13:34:27.973Z,8.50
2018-03-26T13:37:01.950Z,9.00
2018-03-26T13:39:35.999Z,8.00
2018-03-26T13:42:08.120Z,8.00
2018-03-26T13:44:40.639Z,10.50
2018-03-26T13:47:21.134Z,8.25
2018-03-26T13:49:55.596Z,8.50
2018-03-26T13:52:28.710Z,8.25
2018-03-26T13:55:01.084Z,9.00
2018-03-26T13:57:33.964Z,7.00
2018-03-26T14:00:43.903Z,8.00
2018-03-26T14:03:16.560Z,7.75
2018-03-26T14:05:48.199Z,9.00
2018-03-26T14:08:32.323Z,9.00
2018-03-26T14:11:35.275Z,10.00
2018-03-26T14:14:17.455Z,9.50
2018-03-26T14:17:00.075Z,11.00
2018-03-26T14:19:44.596Z,7.50
2018-03-26T14:22:25.456Z,8.00
2018-03-26T14:24:57.250Z,7.00
2018-03-26T14:27:28.527Z,7.00
2018-03-26T14:30:01.523Z,7.50
2018-03-26T14:32:50.111Z,6.25
2018-03-26T14:35:55.795Z,7.00
2018-03-26T14:38:26.692Z,8.00
2018-03-26T14:40:58.181Z,7.00
2018-03-26T14:43:30.374Z,6.00
2018-03-26T14:46:04.138Z,6.75
2018-03-26T14:48:36.674Z,8.25
2018-03-26T14:51:08.546Z,8.00
2018-03-26T14:53:39.810Z,7.25
2018-03-26T14:56:11.968Z,9.00
2018-03-26T14:58:49.433Z,7.75
2018-03-26T15:01:27.124Z,8.00
2018-03-26T15:04:09.056Z,10.75
2018-03-26T15:06:41.212Z,7.75
2018-03-26T15:09:13.733Z,9.50
2018-03-26T15:11:46.173Z,9.50
2018-03-26T15:14:29.946Z,10.75
2018-03-26T15:17:04.876Z,9.25
2018-03-26T15:19:35.837Z,7.75
2018-03-26T15:22:08.499Z,10.00
2018-03-26T15:24:40.430Z,11.50
2018-03-26T15:27:12.699Z,9.25
2018-03-26T15:29:45.373Z,7.75
2018-03-26T15:32:19.682Z,9.75
2018-03-26T15:34:54.095Z,8.25
2018-03-26T15:37:29.500Z,9.00
2018-03-26T15:40:02.636Z,11.75
2018-03-26T15:42:37.648Z,10.25
2018-03-26T15:48:00.879Z,10.00
2018-03-26T15:50:32.023Z,11.50
2018-03-26T15:53:04.423Z,12.00
2018-03-26T15:55:38.452Z,13.50
2018-03-26T15:58:12.819Z,13.00
2018-03-26T16:03:49.327Z,15.00
2018-03-26T16:06:20.519Z,13.25
2018-03-26T16:08:56.054Z,10.25
2018-03-26T16:11:27.167Z,9.50
2018-03-26T16:13:58.543Z,10.00
2018-03-26T16:16:30.090Z,10.00
2018-03-26T16:19:03.744Z,10.00
2018-03-26T16:21:36.005Z,11.50
2018-03-26T16:24:12.984Z,10.50
2018-03-26T16:26:52.622Z,13.00
2018-03-26T16:29:30.428Z,11.25
2018-03-26T16:32:04.327Z,12.00
2018-03-26T16:34:40.905Z,12.00
2018-03-26T16:37:13.795Z,12.00
2018-03-26T16:39:45.918Z,13.00
2018-03-26T16:42:25.487Z,9.50
2018-03-26T16:45:07.142Z,12.00
2018-03-26T16:47:42.091Z,12.00
2018-03-26T16:50:20.995Z,11.00
2018-03-26T16:52:57.627Z,10.75
2018-03-26T16:55:44.210Z,12.50
2018-03-26T16:58:29.796Z,16.00
2018-03-26T17:01:05.793Z,14.00
2018-03-26T17:03:46.052Z,16.50
2018-03-26T17:06:19.371Z,16.25
2018-03-26T17:08:50.581Z,13.50
2018-03-26T17:11:23.476Z,13.25
2018-03-26T17:13:54.683Z,13.25
2018-03-26T17:16:26.999Z,16.00
2018-03-26T17:18:58.416Z,15.25
2018-03-26T17:21:29.403Z,15.25
2018-03-26T17:24:00.489Z,14.75
2018-03-26T17:26:31.946Z,13.50
2018-03-26T17:29:03.435Z,14.75
2018-03-26T17:31:35.697Z,14.50
2018-03-26T17:34:17.685Z,13.25
2018-03-26T17:36:48.731Z,16.50
2018-03-26T17:39:25.036Z,16.00
2018-03-26T17:41:57.038Z,15.75
2018-03-26T17:44:28.804Z,16.00
2018-03-26T17:47:00.245Z,14.25
2018-03-26T17:49:31.285Z,16.00
2018-03-26T17:52:04.440Z,12.25
2018-03-26T17:57:40.923Z,16.00
2018-03-26T18:00:26.472Z,15.75
2018-03-26T18:02:57.804Z,12.50
2018-03-26T18:05:29.643Z,13.75
2018-03-26T18:08:01.433Z,19.50
2018-03-26T18:10:33.472Z,19.75
2018-03-26T18:13:04.996Z,26.75
2018-03-26T18:15:36.727Z,15.50
2018-03-26T18:18:08.152Z,15.50
2018-03-26T18:20:40.319Z,15.00
2018-03-26T18:23:11.802Z,12.50
2018-03-26T18:25:43.558Z,13.00
2018-03-26T18:28:18.191Z,15.25
2018-03-26T18:30:51.031Z,14.25
2018-03-26T18:33:47.345Z,15.75
2018-03-26T18:36:21.020Z,13.75
2018-03-26T18:38:57.457Z,16.00
2018-03-26T18:41:35.348Z,14.25
2018-03-26T18:44:08.041Z,20.75
2018-03-26T18:46:40.444Z,19.25
2018-03-26T18:49:13.944Z,20.00
2018-03-26T18:51:45.508Z,21.50
2018-03-26T18:54:18.065Z,14.00
2018-03-26T18:56:49.601Z,13.25
2018-03-26T18:59:20.795Z,16.00
2018-03-26T19:01:52.787Z,18.75
2018-03-26T19:04:26.289Z,16.25
2018-03-26T19:06:57.700Z,21.75
2018-03-26T19:09:28.859Z,17.00
2018-03-26T19:12:00.157Z,18.75
2018-03-26T19:14:31.633Z,19.75
2018-03-26T19:17:03.061Z,18.25
2018-03-26T19:19:34.746Z,20.75
2018-03-26T19:22:06.718Z,19.25
2018-03-26T19:37:56.593Z,16.25
2018-03-26T19:40:34.531Z,23.25
2018-03-26T19:43:07.001Z,20.00
2018-03-26T19:45:38.856Z,20.75
2018-03-26T19:48:10.151Z,24.25
2018-03-26T19:50:41.347Z,22.25
2018-03-26T19:53:17.305Z,20.25
2018-03-26T19:55:48.395Z,20.25
2018-03-26T19:58:19.669Z,21.00
2018-03-26T20:00:51.001Z,21.50
2018-03-26T20:03:23.440Z,20.75
2018-03-26T20:05:55.383Z,24.00
2018-03-26T20:08:27.536Z,22.25
2018-03-26T20:10:58.768Z,21.50
2018-03-26T20:26:54.729Z,28.75
2018-03-26T20:29:27.526Z,26.25
2018-03-26T20:31:58.659Z,25.00
2018-03-26T20:34:30.455Z,26.75
2018-03-26T20:37:02.087Z,28.25
2018-03-26T20:39:34.162Z,27.25
2018-03-26T20:42:06.008Z,28.75
2018-03-26T20:44:37.146Z,24.75
2018-03-26T20:47:08.686Z,27.00
2018-03-26T20:55:53.343Z,30.00
2018-03-26T20:58:29.206Z,31.00
2018-03-26T21:01:00.866Z,26.00
2018-03-26T21:03:33.523Z,27.50
2018-03-26T21:06:05.176Z,32.25
2018-03-26T21:08:37.656Z,26.00
2018-03-26T21:11:08.599Z,32.25
2018-03-26T21:13:39.668Z,33.50
2018-03-26T21:16:11.608Z,37.50
2018-03-26T21:18:42.504Z,34.75
2018-03-26T21:21:13.302Z,38.25
2018-03-26T21:23:45.328Z,35.25
2018-03-26T21:26:18.368Z,36.75
2018-03-26T21:28:49.509Z,32.00
2018-03-26T21:31:20.646Z,39.25
2018-03-26T21:33:51.851Z,31.00
2018-03-26T21:36:24.466Z,30.50
2018-03-26T21:49:53.149Z,31.50
2018-03-26T21:52:25.685Z,34.25
2018-03-26T21:55:03.817Z,34.00
2018-03-26T21:57:36.215Z,34.75
2018-03-26T22:00:10.631Z,38.75
2018-03-26T22:02:44.690Z,35.50
2018-03-26T22:05:15.598Z,34.00
2018-03-26T22:07:46.662Z,34.25
2018-03-26T22:19:04.603Z,48.25
2018-03-26T22:21:35.523Z,40.50
2018-03-26T22:24:06.508Z,40.25
2018-03-26T22:26:37.918Z,42.75
2018-03-26T22:29:09.369Z,46.75
2018-03-26T22:31:40.700Z,46.00
2018-03-26T22:34:11.785Z,45.25
2018-03-26T22:36:42.781Z,46.50
2018-03-26T22:46:41.739Z,50.00
2018-03-26T22:49:13.010Z,48.00
2018-03-26T22:51:44.070Z,55.00
2018-03-26T22:54:15.584Z,50.25
2018-03-26T23:09:54.042Z,46.50
2018-03-26T23:12:32.825Z,50.75
2018-03-26T23:15:08.165Z,56.25
2018-03-26T23:17:39.851Z,57.50
2018-03-26T23:20:11.174Z,62.25
2018-03-26T23:22:57.143Z,56.00
2018-03-26T23:32:47.656Z,62.00
2018-03-26T23:35:19.034Z,60.50
2018-03-26T23:37:50.573Z,55.00
2018-03-26T23:40:21.770Z,64.50
2018-03-26T23:42:53.533Z,55.00
2018-03-26T23:45:26.100Z,59.00
2018-03-26T23:47:57.124Z,62.50
2018-03-26T23:50:29.522Z,55.00
2018-03-26T23:53:00.429Z,62.25
2018-03-26T23:55:31.993Z,60.25
2018-03-26T23:58:03.588Z,60.25
